createdAt,value
2019-05-18T00:00:20.170Z,35.13
2019-05-18T00:02:47.583Z,35.87
2019-05-18T00:05:14.917Z,33.97
2019-05-18T00:07:42.357Z,32.87
2019-05-18T00:10:09.688Z,32.80
2019-05-18T00:12:37.049Z,32.40
2019-05-18T00:15:06.007Z,34.93
2019-05-18T00:17:33.392Z,37.47
2019-05-18T00:20:00.747Z,37.53
2019-05-18T00:22:28.177Z,38.27
2019-05-18T00:24:55.605Z,38.37
2019-05-18T00:27:22.961Z,38.97
2019-05-18T00:29:50.286Z,39.27
2019-05-18T00:32:17.724Z,38.53
2019-05-18T00:34:45.086Z,37.73
2019-05-18T00:37:12.441Z,37.17
2019-05-18T00:39:39.840Z,37.47
2019-05-18T00:42:07.157Z,36.97
2019-05-18T00:44:34.506Z,34.33
2019-05-18T00:47:02.179Z,34.53
2019-05-18T00:49:29.539Z,34.00
2019-05-18T00:51:56.894Z,33.43
2019-05-18T00:54:24.217Z,34.53
2019-05-18T00:56:51.574Z,34.53
2019-05-18T00:59:18.973Z,33.50
2019-05-18T01:01:46.317Z,33.87
2019-05-18T01:04:13.683Z,34.13
2019-05-18T01:06:41.143Z,33.53
2019-05-18T01:09:08.503Z,31.93
2019-05-18T01:11:35.971Z,34.47
2019-05-18T01:14:03.393Z,33.87
2019-05-18T01:16:30.824Z,30.70
2019-05-18T01:18:58.155Z,33.30
2019-05-18T01:21:25.495Z,34.40
2019-05-18T01:23:52.848Z,33.70
2019-05-18T01:26:20.267Z,31.97
2019-05-18T01:28:47.593Z,35.67
2019-05-18T01:31:14.981Z,34.83
2019-05-18T01:33:42.388Z,34.53
2019-05-18T01:36:09.755Z,34.87
2019-05-18T01:38:37.088Z,34.03
2019-05-18T01:41:04.408Z,34.60
2019-05-18T01:43:31.759Z,36.27
2019-05-18T01:45:59.071Z,35.77
2019-05-18T01:48:26.429Z,33.30
2019-05-18T01:50:53.812Z,32.73
2019-05-18T01:53:21.135Z,34.23
2019-05-18T01:55:48.583Z,35.17
2019-05-18T01:58:16.924Z,36.77
2019-05-18T02:00:44.261Z,38.27
2019-05-18T02:03:11.711Z,38.10
2019-05-18T02:05:39.151Z,41.17
2019-05-18T02:08:06.473Z,39.37
2019-05-18T02:10:33.868Z,39.10
2019-05-18T02:13:01.199Z,39.10
2019-05-18T02:15:28.592Z,38.40
2019-05-18T02:17:56.010Z,38.50
2019-05-18T02:20:23.331Z,37.07
2019-05-18T02:22:50.697Z,39.80
2019-05-18T02:25:18.094Z,40.57
2019-05-18T02:27:45.506Z,40.90
2019-05-18T02:30:17.025Z,40.87
2019-05-18T02:32:41.895Z,39.83
2019-05-18T02:35:09.256Z,41.47
2019-05-18T02:37:36.596Z,40.83
2019-05-18T02:40:05.035Z,40.67
2019-05-18T02:42:32.421Z,38.70
2019-05-18T02:44:59.804Z,38.90
2019-05-18T02:47:27.246Z,36.67
2019-05-18T02:49:54.602Z,38.10
2019-05-18T02:52:21.985Z,36.93
2019-05-18T02:54:49.401Z,39.03
2019-05-18T02:57:16.720Z,39.20
2019-05-18T02:59:44.245Z,38.37
2019-05-18T03:02:11.585Z,39.77
2019-05-18T03:04:39.045Z,38.00
2019-05-18T03:07:06.372Z,38.30
2019-05-18T03:09:33.805Z,38.57
2019-05-18T03:12:01.116Z,39.13
2019-05-18T03:14:28.473Z,39.17
2019-05-18T03:16:55.809Z,40.47
2019-05-18T03:19:23.158Z,39.60
2019-05-18T03:21:50.505Z,41.67
2019-05-18T03:24:17.795Z,39.27
2019-05-18T03:26:45.150Z,41.60
2019-05-18T03:29:12.839Z,41.63
2019-05-18T03:31:40.284Z,40.70
2019-05-18T03:34:07.652Z,40.00
2019-05-18T03:36:35.008Z,38.70
2019-05-18T03:39:02.362Z,40.57
2019-05-18T03:41:29.698Z,39.50
2019-05-18T03:43:57.051Z,40.03
2019-05-18T03:46:24.404Z,38.00
2019-05-18T03:48:51.730Z,38.63
2019-05-18T03:51:19.247Z,40.63
2019-05-18T03:53:46.581Z,39.80
2019-05-18T03:56:13.932Z,43.10
2019-05-18T03:58:41.328Z,43.17
2019-05-18T04:01:08.671Z,40.20
2019-05-18T04:03:36.024Z,40.10
2019-05-18T04:06:03.522Z,39.87
2019-05-18T04:08:30.954Z,39.80
2019-05-18T04:10:58.294Z,38.60
2019-05-18T04:13:25.689Z,43.63
2019-05-18T04:15:53.121Z,47.20
2019-05-18T04:18:20.421Z,48.73
2019-05-18T04:20:47.899Z,52.27
2019-05-18T04:23:15.304Z,53.03
2019-05-18T04:25:43.880Z,46.87
2019-05-18T04:28:11.556Z,46.90
2019-05-18T04:30:38.888Z,44.83
2019-05-18T04:33:06.236Z,45.60
2019-05-18T04:35:33.582Z,43.57
2019-05-18T04:38:00.916Z,42.73
2019-05-18T04:40:28.345Z,41.83
2019-05-18T04:42:55.758Z,41.17
2019-05-18T04:45:23.088Z,39.60
2019-05-18T04:47:50.413Z,39.07
2019-05-18T04:50:19.472Z,37.87
2019-05-18T04:52:46.883Z,36.33
2019-05-18T04:55:14.283Z,35.90
2019-05-18T04:57:41.623Z,36.00
2019-05-18T05:00:09.013Z,35.87
2019-05-18T05:02:36.505Z,33.93
2019-05-18T05:05:05.179Z,43.90
2019-05-18T05:07:32.546Z,39.40
2019-05-18T05:10:00.088Z,39.63
2019-05-18T05:12:27.562Z,39.83
2019-05-18T05:14:55.056Z,30.80
2019-05-18T05:17:22.512Z,27.13
2019-05-18T05:19:50.204Z,25.40
2019-05-18T05:22:17.660Z,26.23
2019-05-18T05:24:47.724Z,25.53
2019-05-18T05:27:15.150Z,25.50
2019-05-18T05:29:42.583Z,24.03
2019-05-18T05:32:09.937Z,22.50
2019-05-18T05:34:37.451Z,22.63
2019-05-18T05:37:04.818Z,21.27
2019-05-18T05:39:32.362Z,21.93
2019-05-18T05:42:01.287Z,21.67
2019-05-18T05:44:28.744Z,20.60
2019-05-18T05:46:56.243Z,19.33
2019-05-18T05:49:23.630Z,19.70
2019-05-18T05:51:53.183Z,17.90
2019-05-18T05:54:20.162Z,16.73
2019-05-18T05:56:47.517Z,16.07
2019-05-18T05:59:14.903Z,15.43
2019-05-18T06:01:42.348Z,15.20
2019-05-18T06:04:09.676Z,16.07
2019-05-18T06:06:37.165Z,15.67
2019-05-18T06:09:05.852Z,15.27
2019-05-18T06:11:33.228Z,15.57
2019-05-18T06:14:00.589Z,16.77
2019-05-18T06:16:27.923Z,15.13
2019-05-18T06:18:56.255Z,14.43
2019-05-18T06:21:23.621Z,14.93
2019-05-18T06:23:51.037Z,15.53
2019-05-18T06:26:18.319Z,15.23
2019-05-18T06:28:47.310Z,15.13
2019-05-18T06:31:14.810Z,15.53
2019-05-18T06:33:42.221Z,14.30
2019-05-18T06:36:09.646Z,13.97
2019-05-18T06:38:37.084Z,11.57
2019-05-18T06:41:04.403Z,12.67
2019-05-18T06:43:31.751Z,11.57
2019-05-18T06:46:00.899Z,11.53
2019-05-18T06:48:28.318Z,11.63
2019-05-18T06:51:06.664Z,13.83
2019-05-18T06:53:24.623Z,13.37
2019-05-18T06:55:52.021Z,14.07
2019-05-18T06:58:19.421Z,14.77
2019-05-18T07:00:46.792Z,13.87
2019-05-18T07:03:14.106Z,12.87
2019-05-18T07:05:41.467Z,13.50
2019-05-18T07:08:08.807Z,13.73
2019-05-18T07:10:36.163Z,13.63
2019-05-18T07:13:03.600Z,12.53
2019-05-18T07:15:30.925Z,11.77
2019-05-18T07:17:58.291Z,12.10
2019-05-18T07:20:25.663Z,11.77
2019-05-18T07:22:53.003Z,11.13
2019-05-18T07:25:20.334Z,12.47
2019-05-18T07:27:47.669Z,10.10
2019-05-18T07:30:14.997Z,8.97
2019-05-18T07:32:42.302Z,9.13
2019-05-18T07:35:10.404Z,9.30
2019-05-18T07:37:37.710Z,8.27
2019-05-18T07:40:06.103Z,8.47
2019-05-18T07:42:33.442Z,7.40
2019-05-18T07:45:01.007Z,7.90
2019-05-18T07:47:28.365Z,7.57
2019-05-18T07:49:55.738Z,8.40
2019-05-18T07:52:23.081Z,8.03
2019-05-18T07:54:50.600Z,7.87
2019-05-18T07:57:17.965Z,7.47
2019-05-18T07:59:45.357Z,6.93
2019-05-18T08:02:12.658Z,8.57
2019-05-18T08:04:39.991Z,9.23
2019-05-18T08:07:07.313Z,7.70
2019-05-18T08:09:34.904Z,9.00
2019-05-18T08:12:02.337Z,8.47
2019-05-18T08:14:29.742Z,8.07
2019-05-18T08:16:57.053Z,7.97
2019-05-18T08:19:24.404Z,8.20
2019-05-18T08:21:53.592Z,8.23
2019-05-18T08:24:20.660Z,7.40
2019-05-18T08:26:48.103Z,5.67
2019-05-18T08:29:15.412Z,5.97
2019-05-18T08:31:42.738Z,5.30
2019-05-18T08:34:10.073Z,4.77
2019-05-18T08:36:38.193Z,5.33
2019-05-18T08:39:05.973Z,5.80
2019-05-18T08:41:33.416Z,6.60
2019-05-18T08:44:00.767Z,6.93
2019-05-18T08:46:28.082Z,5.80
2019-05-18T08:48:55.487Z,6.63
2019-05-18T08:51:22.821Z,12.33
2019-05-18T08:53:50.136Z,8.43
2019-05-18T08:56:17.601Z,6.30
2019-05-18T08:58:44.897Z,5.47
2019-05-18T09:01:12.358Z,7.37
2019-05-18T09:03:39.712Z,7.87
2019-05-18T09:06:07.378Z,6.93
2019-05-18T09:08:34.708Z,8.23
2019-05-18T09:11:02.045Z,7.00
2019-05-18T09:13:29.367Z,6.37
2019-05-18T09:15:56.676Z,6.07
2019-05-18T09:18:24.006Z,5.77
2019-05-18T09:20:51.319Z,6.37
2019-05-18T09:23:18.640Z,6.03
2019-05-18T09:25:46.216Z,6.40
2019-05-18T09:28:13.534Z,5.80
2019-05-18T09:30:41.371Z,5.40
2019-05-18T09:33:09.287Z,5.15
2019-05-18T09:35:36.586Z,4.73
2019-05-18T09:38:03.929Z,5.13
2019-05-18T09:40:31.272Z,5.17
2019-05-18T09:42:58.625Z,4.80
2019-05-18T09:45:25.943Z,5.00
2019-05-18T09:47:53.252Z,4.67
2019-05-18T09:50:20.606Z,4.20
2019-05-18T09:52:49.143Z,4.47
2019-05-18T09:55:16.571Z,5.45
2019-05-18T09:57:43.919Z,4.70
2019-05-18T10:00:11.658Z,3.33
2019-05-18T10:02:38.959Z,4.67
2019-05-18T10:05:06.302Z,4.13
2019-05-18T10:07:33.685Z,3.80
2019-05-18T10:10:01.031Z,3.75
2019-05-18T10:12:28.343Z,4.10
2019-05-18T10:14:55.678Z,3.63
2019-05-18T10:17:23.006Z,4.30
2019-05-18T10:19:50.333Z,3.62
2019-05-18T10:22:17.748Z,4.03
2019-05-18T10:24:45.076Z,3.98
2019-05-18T10:27:12.443Z,4.12
2019-05-18T10:29:39.867Z,4.50
2019-05-18T10:32:07.217Z,5.28
2019-05-18T10:34:34.582Z,4.47
2019-05-18T10:37:01.992Z,5.03
2019-05-18T10:39:29.332Z,5.05
2019-05-18T10:41:56.645Z,4.80
2019-05-18T10:44:24.044Z,5.37
2019-05-18T10:46:51.343Z,5.70
2019-05-18T10:49:18.673Z,4.92
2019-05-18T10:51:46.168Z,4.80
2019-05-18T10:54:13.624Z,4.80
2019-05-18T10:56:40.966Z,4.90
2019-05-18T10:59:08.295Z,5.70
2019-05-18T11:01:35.638Z,5.20
2019-05-18T11:04:02.959Z,5.00
2019-05-18T11:06:30.351Z,4.72
2019-05-18T11:08:57.687Z,5.25
2019-05-18T11:11:24.999Z,4.97
2019-05-18T11:13:52.333Z,5.25
2019-05-18T11:16:19.693Z,5.20
2019-05-18T11:18:47.156Z,5.33
2019-05-18T11:21:14.679Z,4.62
2019-05-18T11:23:44.292Z,5.50
2019-05-18T11:26:11.022Z,5.30
2019-05-18T11:28:38.348Z,5.20
2019-05-18T11:31:05.671Z,5.53
2019-05-18T11:33:33.093Z,5.62
2019-05-18T11:36:00.423Z,5.53
2019-05-18T11:38:27.782Z,5.33
2019-05-18T11:40:55.155Z,5.10
2019-05-18T11:43:22.442Z,5.33
2019-05-18T11:45:49.779Z,4.80
2019-05-18T11:48:17.143Z,6.15
2019-05-18T11:50:44.477Z,4.53
2019-05-18T11:53:11.821Z,5.12
2019-05-18T11:55:39.200Z,5.17
2019-05-18T11:58:06.567Z,5.47
2019-05-18T12:00:34.033Z,4.87
2019-05-18T12:03:01.540Z,5.45
2019-05-18T12:05:28.986Z,5.35
2019-05-18T12:07:56.317Z,4.58
2019-05-18T12:10:23.894Z,4.87
2019-05-18T12:12:51.385Z,4.62
2019-05-18T12:15:18.820Z,5.00
2019-05-18T12:17:46.194Z,4.67
2019-05-18T12:20:13.598Z,5.55
2019-05-18T12:22:40.930Z,5.78
2019-05-18T12:25:08.281Z,4.00
2019-05-18T12:27:35.727Z,5.05
2019-05-18T12:30:03.712Z,5.62
2019-05-18T12:32:31.137Z,5.40
2019-05-18T12:34:58.503Z,5.28
2019-05-18T12:37:25.815Z,4.90
2019-05-18T12:39:53.509Z,5.65
2019-05-18T12:42:21.321Z,5.10
2019-05-18T12:44:48.812Z,4.90
2019-05-18T12:47:16.154Z,4.72
2019-05-18T12:49:43.442Z,4.90
2019-05-18T12:52:10.801Z,4.58
2019-05-18T12:54:46.061Z,4.40
2019-05-18T12:57:07.279Z,4.60
2019-05-18T12:59:34.647Z,4.67
2019-05-18T13:02:02.041Z,5.08
2019-05-18T13:04:29.385Z,4.60
2019-05-18T13:06:56.689Z,5.70
2019-05-18T13:09:24.067Z,5.22
2019-05-18T13:11:51.388Z,4.90
2019-05-18T13:14:18.871Z,5.00
2019-05-18T13:16:46.207Z,5.70
2019-05-18T13:19:13.550Z,5.20
2019-05-18T13:21:40.853Z,5.10
2019-05-18T13:24:08.206Z,4.72
2019-05-18T13:26:35.628Z,5.22
2019-05-18T13:29:03.007Z,4.85
2019-05-18T13:31:30.296Z,5.20
2019-05-18T13:33:57.612Z,4.97
2019-05-18T13:36:25.125Z,5.55
2019-05-18T13:38:52.464Z,5.67
2019-05-18T13:41:19.862Z,4.85
2019-05-18T13:43:47.211Z,5.53
2019-05-18T13:46:14.538Z,4.78
2019-05-18T13:48:41.850Z,4.58
2019-05-18T13:51:09.344Z,4.10
2019-05-18T13:53:36.660Z,4.35
2019-05-18T13:56:04.013Z,4.85
2019-05-18T13:58:31.374Z,4.28
2019-05-18T14:00:59.118Z,4.15
2019-05-18T14:03:26.436Z,4.45
2019-05-18T14:05:53.915Z,4.80
2019-05-18T14:08:21.369Z,3.75
2019-05-18T14:10:48.681Z,4.87
2019-05-18T14:13:16.095Z,4.85
2019-05-18T14:15:43.816Z,4.95
2019-05-18T14:18:11.235Z,4.08
2019-05-18T14:20:38.580Z,4.28
2019-05-18T14:23:05.917Z,3.65
2019-05-18T14:25:33.308Z,4.15
2019-05-18T14:28:00.674Z,4.47
2019-05-18T14:30:28.028Z,4.45
2019-05-18T14:32:55.378Z,3.98
2019-05-18T14:35:22.719Z,3.62
2019-05-18T14:37:50.052Z,3.40
2019-05-18T14:40:17.402Z,3.50
2019-05-18T14:42:44.718Z,3.83
2019-05-18T14:45:12.062Z,3.52
2019-05-18T14:47:39.504Z,3.20
2019-05-18T14:50:06.868Z,3.67
2019-05-18T14:52:34.529Z,3.60
2019-05-18T14:55:01.913Z,4.03
2019-05-18T14:57:29.326Z,3.37
2019-05-18T14:59:56.785Z,3.83
2019-05-18T15:02:24.136Z,4.03
2019-05-18T15:04:56.846Z,3.92
2019-05-18T15:07:23.029Z,3.62
2019-05-18T15:09:50.332Z,3.87
2019-05-18T15:12:17.720Z,3.83
2019-05-18T15:14:45.096Z,4.33
2019-05-18T15:17:12.409Z,4.45
2019-05-18T15:19:39.773Z,4.05
2019-05-18T15:22:07.088Z,4.25
2019-05-18T15:24:34.408Z,4.35
2019-05-18T15:27:01.751Z,3.35
2019-05-18T15:29:29.058Z,3.80
2019-05-18T15:31:56.388Z,4.20
2019-05-18T15:34:23.722Z,4.47
2019-05-18T15:36:51.052Z,4.75
2019-05-18T15:39:18.424Z,4.60
2019-05-18T15:41:45.828Z,5.12
2019-05-18T15:44:13.282Z,5.58
2019-05-18T15:46:40.651Z,5.10
2019-05-18T15:49:08.033Z,5.58
2019-05-18T15:51:35.414Z,6.33
2019-05-18T15:54:02.741Z,5.90
2019-05-18T15:56:30.068Z,5.67
2019-05-18T15:58:57.395Z,5.67
2019-05-18T16:01:24.805Z,5.58
2019-05-18T16:03:52.235Z,5.97
2019-05-18T16:06:19.623Z,5.30
2019-05-18T16:08:46.954Z,5.37
2019-05-18T16:11:14.279Z,5.45
2019-05-18T16:13:41.680Z,6.10
2019-05-18T16:16:09.065Z,6.10
2019-05-18T16:18:36.459Z,6.55
2019-05-18T16:21:03.829Z,6.17
2019-05-18T16:23:31.204Z,6.97
2019-05-18T16:25:58.644Z,6.37
2019-05-18T16:28:26.048Z,5.53
2019-05-18T16:30:53.395Z,5.62
2019-05-18T16:33:20.715Z,5.53
2019-05-18T16:35:48.034Z,4.83
2019-05-18T16:38:15.369Z,5.05
2019-05-18T16:40:42.997Z,4.25
2019-05-18T16:43:10.372Z,4.45
2019-05-18T16:45:37.742Z,3.42
2019-05-18T16:48:05.150Z,3.45
2019-05-18T16:50:32.525Z,2.65
2019-05-18T16:52:59.857Z,4.92
2019-05-18T16:55:27.196Z,6.08
2019-05-18T16:57:54.583Z,5.58
2019-05-18T17:00:21.909Z,5.08
2019-05-18T17:02:49.261Z,5.47
2019-05-18T17:05:16.635Z,5.30
2019-05-18T17:07:44.250Z,4.75
2019-05-18T17:10:11.553Z,5.92
2019-05-18T17:12:39.071Z,5.72
2019-05-18T17:15:06.829Z,5.20
2019-05-18T17:17:35.455Z,5.30
2019-05-18T17:20:03.033Z,5.15
2019-05-18T17:22:30.369Z,5.17
2019-05-18T17:24:57.677Z,6.92
2019-05-18T17:27:25.009Z,7.85
2019-05-18T17:29:52.317Z,7.83
2019-05-18T17:32:19.679Z,7.80
2019-05-18T17:34:47.600Z,8.18
2019-05-18T17:37:14.899Z,8.13
2019-05-18T17:39:42.287Z,7.42
2019-05-18T17:42:09.578Z,9.75
2019-05-18T17:44:36.919Z,14.83
2019-05-18T17:47:04.252Z,12.73
2019-05-18T17:49:31.579Z,12.23
2019-05-18T17:51:59.006Z,13.08
2019-05-18T17:54:26.412Z,11.10
2019-05-18T17:57:07.535Z,12.15
2019-05-18T17:59:22.682Z,12.68
2019-05-18T18:01:50.105Z,11.53
2019-05-18T18:04:17.527Z,11.12
2019-05-18T18:06:44.934Z,12.23
2019-05-18T18:09:12.240Z,12.15
2019-05-18T18:11:39.592Z,15.50
2019-05-18T18:14:06.900Z,17.30
2019-05-18T18:16:34.252Z,13.48
2019-05-18T18:19:01.602Z,8.00
2019-05-18T18:21:28.950Z,5.15
2019-05-18T18:23:56.250Z,5.40
2019-05-18T18:26:23.590Z,5.13
2019-05-18T18:28:51.120Z,5.20
2019-05-18T18:31:18.453Z,6.00
2019-05-18T18:33:45.874Z,5.63
2019-05-18T18:36:13.217Z,5.20
2019-05-18T18:38:40.536Z,5.50
2019-05-18T18:41:07.895Z,5.90
2019-05-18T18:43:35.231Z,5.10
2019-05-18T18:46:02.612Z,5.20
2019-05-18T18:48:29.890Z,4.20
2019-05-18T18:50:57.251Z,3.73
2019-05-18T18:53:24.840Z,4.70
2019-05-18T18:55:52.352Z,4.50
2019-05-18T18:58:19.734Z,3.87
2019-05-18T19:00:47.135Z,4.70
2019-05-18T19:03:14.462Z,3.83
2019-05-18T19:05:41.768Z,2.80
2019-05-18T19:08:09.108Z,1.70
2019-05-18T19:10:36.589Z,3.07
2019-05-18T19:13:03.987Z,2.90
2019-05-18T19:15:31.322Z,3.77
2019-05-18T19:17:58.644Z,5.20
2019-05-18T19:20:26.029Z,3.90
2019-05-18T19:22:53.606Z,3.77
2019-05-18T19:25:20.952Z,7.30
2019-05-18T19:27:54.875Z,7.20
2019-05-18T19:30:17.294Z,3.73
2019-05-18T19:32:44.615Z,2.47
2019-05-18T19:35:12.207Z,2.50
2019-05-18T19:37:39.524Z,1.50
2019-05-18T19:40:06.922Z,1.47
2019-05-18T19:42:34.252Z,1.77
2019-05-18T19:45:01.645Z,1.87
2019-05-18T19:47:29.031Z,1.40
2019-05-18T19:49:56.613Z,1.63
2019-05-18T19:52:24.032Z,3.30
2019-05-18T19:54:51.378Z,3.03
2019-05-18T19:57:18.819Z,1.97
2019-05-18T19:59:46.165Z,2.37
2019-05-18T20:02:13.610Z,2.63
2019-05-18T20:04:40.915Z,3.43
2019-05-18T20:07:08.331Z,3.87
2019-05-18T20:09:35.649Z,4.57
2019-05-18T20:12:02.991Z,2.80
2019-05-18T20:14:30.513Z,2.27
2019-05-18T20:16:58.209Z,3.33
2019-05-18T20:19:38.208Z,4.00
2019-05-18T20:21:54.595Z,3.67
2019-05-18T20:24:21.898Z,2.97
2019-05-18T20:26:49.260Z,2.40
2019-05-18T20:29:16.554Z,3.00
2019-05-18T20:31:43.908Z,8.70
2019-05-18T20:34:11.303Z,4.50
2019-05-18T20:36:38.655Z,3.33
2019-05-18T20:39:06.028Z,2.50
2019-05-18T20:41:33.429Z,2.23
2019-05-18T20:44:00.996Z,2.60
2019-05-18T20:46:28.388Z,2.77
2019-05-18T20:48:55.711Z,2.43
2019-05-18T20:51:23.078Z,2.53
2019-05-18T20:53:50.399Z,2.77
2019-05-18T20:56:17.742Z,2.70
2019-05-18T20:58:45.053Z,2.60
2019-05-18T21:01:12.384Z,2.40
2019-05-18T21:03:39.994Z,2.97
2019-05-18T21:06:07.356Z,2.83
2019-05-18T21:08:34.737Z,3.13
2019-05-18T21:11:02.354Z,2.97
2019-05-18T21:13:29.695Z,3.33
2019-05-18T21:15:57.398Z,3.10
2019-05-18T21:18:24.748Z,4.50
2019-05-18T21:20:52.150Z,4.63
2019-05-18T21:23:19.498Z,6.80
2019-05-18T21:25:46.804Z,7.27
2019-05-18T21:28:14.139Z,4.83
2019-05-18T21:30:41.446Z,4.07
2019-05-18T21:33:08.780Z,4.73
2019-05-18T21:35:36.117Z,4.47
2019-05-18T21:38:03.866Z,4.90
2019-05-18T21:40:31.177Z,4.30
2019-05-18T21:42:58.623Z,4.07
2019-05-18T21:45:25.969Z,4.67
2019-05-18T21:47:53.279Z,4.10
2019-05-18T21:50:20.614Z,5.00
2019-05-18T21:52:47.908Z,6.50
2019-05-18T21:55:15.317Z,7.03
2019-05-18T21:57:42.701Z,6.27
2019-05-18T22:00:10.107Z,6.47
2019-05-18T22:02:37.442Z,7.30
2019-05-18T22:05:05.011Z,7.93
2019-05-18T22:07:32.339Z,7.13
2019-05-18T22:09:59.759Z,7.60
2019-05-18T22:12:27.093Z,7.47
2019-05-18T22:14:54.414Z,9.00
2019-05-18T22:17:21.777Z,8.63
2019-05-18T22:19:49.141Z,9.10
2019-05-18T22:22:16.576Z,10.03
2019-05-18T22:24:43.925Z,11.10
2019-05-18T22:27:11.319Z,11.30
2019-05-18T22:29:38.693Z,12.40
2019-05-18T22:32:06.051Z,13.47
2019-05-18T22:34:33.399Z,13.67
2019-05-18T22:37:00.749Z,14.50
2019-05-18T22:39:28.105Z,14.43
2019-05-18T22:41:55.447Z,14.40
2019-05-18T22:44:22.793Z,13.73
2019-05-18T22:46:50.143Z,13.77
2019-05-18T22:49:17.561Z,13.53
2019-05-18T22:51:44.900Z,13.80
2019-05-18T22:54:12.299Z,12.53
2019-05-18T22:56:39.629Z,14.30
2019-05-18T22:59:06.954Z,13.77
2019-05-18T23:01:34.318Z,12.73
2019-05-18T23:04:01.644Z,13.07
2019-05-18T23:06:29.005Z,13.13
2019-05-18T23:08:56.353Z,12.27
2019-05-18T23:11:23.688Z,12.97
2019-05-18T23:13:51.131Z,13.20
2019-05-18T23:16:18.551Z,12.43
2019-05-18T23:18:56.292Z,13.57
2019-05-18T23:21:15.029Z,13.20
2019-05-18T23:23:42.387Z,13.77
2019-05-18T23:26:11.726Z,14.07
2019-05-18T23:28:38.806Z,13.53
2019-05-18T23:31:06.132Z,13.43
2019-05-18T23:33:33.487Z,15.10
2019-05-18T23:36:00.842Z,14.43
2019-05-18T23:38:28.219Z,15.10
2019-05-18T23:40:55.552Z,13.40
2019-05-18T23:43:22.935Z,14.77
2019-05-18T23:45:50.287Z,14.37
2019-05-18T23:48:17.747Z,15.03
2019-05-18T23:50:45.106Z,13.97
2019-05-18T23:53:12.429Z,14.33
2019-05-18T23:55:39.800Z,15.03
2019-05-18T23:58:07.145Z,16.13
